createdAt,value
2023-01-10T00:02:18.237Z,87.55
2023-01-10T00:04:48.353Z,87.55
2023-01-10T00:07:15.506Z,87.06
2023-01-10T00:09:43.219Z,87.73
2023-01-10T00:12:34.053Z,87.26
2023-01-10T00:15:01.570Z,88.15
2023-01-10T00:17:31.560Z,88.81
2023-01-10T00:19:58.904Z,88.71
2023-01-10T00:22:26.169Z,88.97
2023-01-10T00:24:53.559Z,89.83
2023-01-10T00:27:22.748Z,89.59
2023-01-10T00:29:53.754Z,89.67
2023-01-10T00:32:25.341Z,89.93
2023-01-10T00:34:52.594Z,89.73
2023-01-10T00:37:19.727Z,90.11
2023-01-10T00:39:46.879Z,90.07
2023-01-10T00:42:32.620Z,90.11
2023-01-10T00:44:59.767Z,90.94
2023-01-10T00:47:27.268Z,90.13
2023-01-10T00:49:54.458Z,90.26
2023-01-10T00:52:21.563Z,90.73
2023-01-10T00:54:48.790Z,91.17
2023-01-10T00:57:15.972Z,90.93
2023-01-10T00:59:43.123Z,90.76
2023-01-10T01:02:10.193Z,90.06
2023-01-10T01:04:37.418Z,90.49
2023-01-10T01:07:04.821Z,90.01
2023-01-10T01:09:31.916Z,89.67
2023-01-10T01:11:58.923Z,89.79
2023-01-10T01:14:26.138Z,90.62
2023-01-10T01:16:53.239Z,89.97
2023-01-10T01:19:20.291Z,90.48
2023-01-10T01:21:47.312Z,90.21
2023-01-10T01:24:14.312Z,90.67
2023-01-10T01:26:42.672Z,89.93
2023-01-10T01:29:09.843Z,90.67
2023-01-10T01:31:36.987Z,90.80
2023-01-10T01:34:04.273Z,90.88
2023-01-10T01:36:31.317Z,90.76
2023-01-10T01:38:58.397Z,90.67
2023-01-10T01:41:44.059Z,90.00
2023-01-10T01:44:17.735Z,89.88
2023-01-10T01:47:06.516Z,89.63
2023-01-10T01:49:41.013Z,90.38
2023-01-10T01:52:23.232Z,89.86
2023-01-10T01:54:52.240Z,90.08
2023-01-10T01:57:23.516Z,90.72
2023-01-10T01:59:53.911Z,90.56
2023-01-10T02:02:31.390Z,90.65
2023-01-10T02:05:06.785Z,90.63
2023-01-10T02:07:41.931Z,89.71
2023-01-10T02:10:44.318Z,90.03
2023-01-10T02:13:15.841Z,89.99
2023-01-10T02:15:43.048Z,90.04
2023-01-10T02:18:10.862Z,90.50
2023-01-10T02:21:18.234Z,89.94
2023-01-10T02:24:14.130Z,89.69
2023-01-10T02:27:29.578Z,90.30
2023-01-10T02:30:37.878Z,89.88
2023-01-10T02:33:58.062Z,90.21
2023-01-10T02:37:25.255Z,90.31
2023-01-10T02:40:10.068Z,89.95
2023-01-10T02:43:26.268Z,89.98
2023-01-10T02:46:06.398Z,89.83
2023-01-10T02:48:33.563Z,90.46
2023-01-10T02:51:39.148Z,90.92
2023-01-10T02:54:30.670Z,90.22
2023-01-10T02:57:21.394Z,89.97
2023-01-10T03:00:14.837Z,90.99
2023-01-10T03:03:13.884Z,90.60
2023-01-10T03:06:07.761Z,90.30
2023-01-10T03:08:56.401Z,90.20
2023-01-10T03:11:42.230Z,90.93
2023-01-10T03:14:25.934Z,90.96
2023-01-10T03:17:06.854Z,90.57
2023-01-10T03:19:48.547Z,90.95
2023-01-10T03:22:17.763Z,91.27
2023-01-10T03:24:51.612Z,90.93
2023-01-10T03:28:14.207Z,91.26
2023-01-10T03:31:17.084Z,91.51
2023-01-10T03:33:44.744Z,91.24
2023-01-10T03:36:33.286Z,91.82
2023-01-10T03:39:26.800Z,91.24
2023-01-10T03:42:20.427Z,91.79
2023-01-10T03:45:13.563Z,92.02
2023-01-10T03:47:51.072Z,91.97
2023-01-10T03:50:24.336Z,92.81
2023-01-10T03:52:52.042Z,93.31
2023-01-10T03:55:24.194Z,93.18
2023-01-10T03:57:51.309Z,93.51
2023-01-10T04:00:19.813Z,93.31
2023-01-10T04:02:46.961Z,93.41
2023-01-10T04:05:14.057Z,93.06
2023-01-10T04:07:41.390Z,93.45
2023-01-10T04:10:09.976Z,92.28
2023-01-10T04:12:37.043Z,93.45
2023-01-10T04:15:05.397Z,93.42
2023-01-10T04:17:32.525Z,93.68
2023-01-10T04:20:02.834Z,94.12
2023-01-10T04:22:30.009Z,94.72
2023-01-10T04:24:57.217Z,94.74
2023-01-10T04:27:24.533Z,94.61
2023-01-10T04:29:51.641Z,94.23
2023-01-10T04:32:18.787Z,94.17
2023-01-10T04:34:45.835Z,94.33
2023-01-10T04:37:12.957Z,93.90
2023-01-10T04:39:40.096Z,94.48
2023-01-10T04:42:07.266Z,94.10
2023-01-10T04:44:34.270Z,94.17
2023-01-10T04:47:01.301Z,94.28
2023-01-10T04:49:28.371Z,93.68
2023-01-10T04:51:55.507Z,93.73
2023-01-10T04:54:23.176Z,94.20
2023-01-10T04:56:50.619Z,94.23
2023-01-10T04:59:17.971Z,93.56
2023-01-10T05:01:45.324Z,93.88
2023-01-10T05:04:13.014Z,94.16
2023-01-10T05:06:40.623Z,94.77
2023-01-10T05:09:10.088Z,93.78
2023-01-10T05:11:37.292Z,93.86
2023-01-10T05:14:04.319Z,94.75
2023-01-10T05:16:31.467Z,94.71
2023-01-10T05:18:58.861Z,94.16
2023-01-10T05:21:25.955Z,94.88
2023-01-10T05:23:53.021Z,94.91
2023-01-10T05:26:23.535Z,94.77
2023-01-10T05:28:50.787Z,94.65
2023-01-10T05:31:20.000Z,94.34
2023-01-10T05:33:51.428Z,94.66
2023-01-10T05:36:20.129Z,94.43
2023-01-10T05:38:47.422Z,95.26
2023-01-10T05:41:14.579Z,95.31
2023-01-10T05:43:41.813Z,94.69
2023-01-10T05:46:09.255Z,94.32
2023-01-10T05:48:36.660Z,94.97
2023-01-10T05:51:03.980Z,93.99
2023-01-10T05:53:31.274Z,95.22
2023-01-10T05:56:02.367Z,94.34
2023-01-10T05:58:30.295Z,93.82
2023-01-10T06:00:57.979Z,93.92
2023-01-10T06:03:27.080Z,93.44
2023-01-10T06:05:57.169Z,94.21
2023-01-10T06:08:25.138Z,93.83
2023-01-10T06:10:52.522Z,93.42
2023-01-10T06:13:19.619Z,92.86
2023-01-10T06:15:47.160Z,93.21
2023-01-10T06:18:14.689Z,93.57
2023-01-10T06:20:44.177Z,93.82
2023-01-10T06:23:11.228Z,93.25
2023-01-10T06:25:41.537Z,93.61
2023-01-10T06:28:13.637Z,93.25
2023-01-10T06:30:43.408Z,93.48
2023-01-10T06:33:14.418Z,93.14
2023-01-10T06:35:41.616Z,92.61
2023-01-10T06:38:08.878Z,93.04
2023-01-10T06:40:35.953Z,92.94
2023-01-10T06:43:02.966Z,93.52
2023-01-10T06:45:30.358Z,93.51
2023-01-10T06:47:57.514Z,93.40
2023-01-10T06:50:25.036Z,93.62
2023-01-10T06:53:01.793Z,93.49
2023-01-10T06:55:31.033Z,92.54
2023-01-10T06:58:01.479Z,92.89
2023-01-10T07:00:30.228Z,92.43
2023-01-10T07:03:02.537Z,92.80
2023-01-10T07:05:30.605Z,92.51
2023-01-10T07:07:59.043Z,93.21
2023-01-10T07:10:26.163Z,93.22
2023-01-10T07:12:56.079Z,93.68
2023-01-10T07:15:23.229Z,92.63
2023-01-10T07:17:50.697Z,92.85
2023-01-10T07:20:18.861Z,93.35
2023-01-10T07:22:58.204Z,92.88
2023-01-10T07:25:28.807Z,92.76
2023-01-10T07:27:55.888Z,93.36
2023-01-10T07:30:25.344Z,92.65
2023-01-10T07:32:57.548Z,92.29
2023-01-10T07:35:25.977Z,92.59
2023-01-10T07:37:56.546Z,92.53
2023-01-10T07:40:23.883Z,92.24
2023-01-10T07:42:55.840Z,92.30
2023-01-10T07:45:22.985Z,91.98
2023-01-10T07:47:50.038Z,92.39
2023-01-10T07:50:18.125Z,92.89
2023-01-10T07:52:45.248Z,92.53
2023-01-10T07:55:12.605Z,92.83
2023-01-10T07:57:39.862Z,92.58
2023-01-10T08:00:08.204Z,91.59
2023-01-10T08:02:35.289Z,91.27
2023-01-10T08:05:02.489Z,92.47
2023-01-10T08:07:31.878Z,91.85
2023-01-10T08:09:59.473Z,91.16
2023-01-10T08:12:26.574Z,91.88
2023-01-10T08:14:53.957Z,91.79
2023-01-10T08:17:21.368Z,91.09
2023-01-10T08:19:48.381Z,91.11
2023-01-10T08:22:15.394Z,91.71
2023-01-10T08:24:42.423Z,90.65
2023-01-10T08:27:09.595Z,91.73
2023-01-10T08:29:37.028Z,91.50
2023-01-10T08:32:04.163Z,90.70
2023-01-10T08:34:31.248Z,90.09
2023-01-10T08:36:58.343Z,90.50
2023-01-10T08:39:28.159Z,90.54
2023-01-10T08:41:55.155Z,90.59
2023-01-10T08:44:22.176Z,91.19
2023-01-10T08:46:49.355Z,90.45
2023-01-10T08:49:16.652Z,90.81
2023-01-10T08:51:44.631Z,91.30
2023-01-10T08:54:11.727Z,90.33
2023-01-10T08:56:40.203Z,90.96
2023-01-10T08:59:08.341Z,91.15
2023-01-10T09:01:35.524Z,90.41
2023-01-10T09:04:03.064Z,90.23
2023-01-10T09:06:30.130Z,89.55
2023-01-10T09:08:57.102Z,89.50
2023-01-10T09:11:24.201Z,89.48
2023-01-10T09:13:52.053Z,89.40
2023-01-10T09:16:21.650Z,90.20
2023-01-10T09:18:48.713Z,90.64
2023-01-10T09:21:16.048Z,89.86
2023-01-10T09:23:43.632Z,89.67
2023-01-10T09:26:11.047Z,90.15
2023-01-10T09:28:38.300Z,90.48
2023-01-10T09:31:08.761Z,89.93
2023-01-10T09:33:46.269Z,90.21
2023-01-10T09:36:15.520Z,90.35
2023-01-10T09:38:43.141Z,89.46
2023-01-10T09:41:59.474Z,89.48
2023-01-10T09:45:06.129Z,89.51
2023-01-10T09:48:04.551Z,89.31
2023-01-10T09:51:20.096Z,88.66
2023-01-10T09:53:50.622Z,88.32
2023-01-10T09:56:19.607Z,88.86
2023-01-10T09:58:47.909Z,89.48
2023-01-10T10:01:28.015Z,89.19
2023-01-10T10:04:34.883Z,88.88
2023-01-10T10:07:06.409Z,88.95
2023-01-10T10:09:35.345Z,89.17
2023-01-10T10:13:11.600Z,88.97
2023-01-10T10:16:18.305Z,87.91
2023-01-10T10:19:19.388Z,88.26
2023-01-10T10:22:20.472Z,87.05
2023-01-10T10:25:51.142Z,88.36
2023-01-10T10:29:14.625Z,88.44
2023-01-10T10:32:14.484Z,88.00
2023-01-10T10:35:01.984Z,88.42
2023-01-10T10:37:48.063Z,87.74
2023-01-10T10:40:14.967Z,87.93
2023-01-10T10:42:48.265Z,88.02
2023-01-10T10:45:44.315Z,88.03
2023-01-10T10:48:40.956Z,86.61
2023-01-10T10:51:26.740Z,86.97
2023-01-10T10:53:57.587Z,86.39
2023-01-10T10:56:26.460Z,87.51
2023-01-10T10:58:58.544Z,87.19
2023-01-10T11:01:27.020Z,86.73
2023-01-10T11:04:12.671Z,86.42
2023-01-10T11:06:48.622Z,86.99
2023-01-10T11:09:40.687Z,86.73
2023-01-10T11:12:15.957Z,87.29
2023-01-10T11:14:51.219Z,86.26
2023-01-10T11:17:27.827Z,85.91
2023-01-10T11:20:27.345Z,86.94
2023-01-10T11:22:54.644Z,87.03
2023-01-10T11:25:25.534Z,86.51
2023-01-10T11:28:01.261Z,85.36
2023-01-10T11:30:33.360Z,85.31
2023-01-10T11:33:17.715Z,85.69
2023-01-10T11:36:04.558Z,84.81
2023-01-10T11:38:32.201Z,83.35
2023-01-10T11:41:02.127Z,84.04
2023-01-10T11:43:41.035Z,84.28
2023-01-10T11:46:17.671Z,83.16
2023-01-10T11:49:08.124Z,84.30
2023-01-10T11:51:50.434Z,83.61
2023-01-10T11:54:25.619Z,84.77
2023-01-10T11:57:10.142Z,84.24
2023-01-10T11:59:39.159Z,83.94
2023-01-10T12:02:24.289Z,83.92
2023-01-10T12:04:53.690Z,84.31
2023-01-10T12:07:21.007Z,83.26
2023-01-10T12:10:03.085Z,83.25
2023-01-10T12:12:34.738Z,83.16
2023-01-10T12:15:31.808Z,82.20
2023-01-10T12:18:05.368Z,81.54
2023-01-10T12:20:47.144Z,82.32
2023-01-10T12:23:22.143Z,82.26
2023-01-10T12:25:53.266Z,82.73
2023-01-10T12:28:30.063Z,82.90
2023-01-10T12:31:00.133Z,82.77
2023-01-10T12:33:38.776Z,82.75
2023-01-10T12:36:15.904Z,82.17
2023-01-10T12:39:06.310Z,81.57
2023-01-10T12:42:43.769Z,82.66
2023-01-10T12:45:29.503Z,82.21
2023-01-10T12:48:28.316Z,81.85
2023-01-10T12:51:06.124Z,81.98
2023-01-10T12:53:44.913Z,82.54
2023-01-10T12:56:18.716Z,82.13
2023-01-10T12:59:03.969Z,83.00
2023-01-10T13:01:43.341Z,82.71
2023-01-10T13:04:17.974Z,83.56
2023-01-10T13:06:46.049Z,82.99
2023-01-10T13:09:23.638Z,82.42
2023-01-10T13:12:36.543Z,81.62
2023-01-10T13:15:34.302Z,82.83
2023-01-10T13:18:25.858Z,81.93
2023-01-10T13:21:19.381Z,83.07
2023-01-10T13:23:55.218Z,82.47
2023-01-10T13:26:22.301Z,82.91
2023-01-10T13:29:01.140Z,82.38
2023-01-10T13:31:35.749Z,82.49
2023-01-10T13:34:14.703Z,82.30
2023-01-10T13:36:51.231Z,82.59
2023-01-10T13:39:51.359Z,83.35
2023-01-10T13:42:50.560Z,82.41
2023-01-10T13:45:21.336Z,83.21
2023-01-10T13:47:57.070Z,83.43
2023-01-10T13:50:42.092Z,82.93
2023-01-10T13:53:12.953Z,83.32
2023-01-10T13:55:39.970Z,83.61
2023-01-10T13:58:15.562Z,83.70
2023-01-10T14:01:06.163Z,83.08
2023-01-10T14:03:58.325Z,83.60
2023-01-10T14:06:28.340Z,83.78
2023-01-10T14:09:22.252Z,83.00
2023-01-10T14:12:00.365Z,82.86
2023-01-10T14:14:39.293Z,83.69
2023-01-10T14:17:33.107Z,84.26
2023-01-10T14:20:12.147Z,84.09
2023-01-10T14:22:45.041Z,83.36
2023-01-10T14:25:22.371Z,83.13
2023-01-10T14:27:52.377Z,84.02
2023-01-10T14:30:32.681Z,83.63
2023-01-10T14:33:20.273Z,85.10
2023-01-10T14:35:56.659Z,84.23
2023-01-10T14:38:31.461Z,83.83
2023-01-10T14:41:18.698Z,83.95
2023-01-10T14:44:00.146Z,85.22
2023-01-10T14:46:56.136Z,84.88
2023-01-10T14:49:35.586Z,84.42
2023-01-10T14:52:25.700Z,84.69
2023-01-10T14:55:18.118Z,84.87
2023-01-10T14:58:02.419Z,85.17
2023-01-10T15:00:36.711Z,85.22
2023-01-10T15:03:04.996Z,86.00
2023-01-10T15:05:53.860Z,85.84
2023-01-10T15:08:29.050Z,87.06
2023-01-10T15:11:06.708Z,86.46
2023-01-10T15:13:50.460Z,86.87
2023-01-10T15:16:23.344Z,86.83
2023-01-10T15:18:51.182Z,86.70
2023-01-10T15:21:22.005Z,87.29
2023-01-10T15:23:50.328Z,86.70
2023-01-10T15:26:30.739Z,87.18
2023-01-10T15:29:19.223Z,87.03
2023-01-10T15:31:46.741Z,86.90
2023-01-10T15:34:28.662Z,87.03
2023-01-10T15:37:01.422Z,87.23
2023-01-10T15:39:39.224Z,87.34
2023-01-10T15:42:12.395Z,87.04
2023-01-10T15:44:55.684Z,86.64
2023-01-10T15:47:50.091Z,87.03
2023-01-10T15:50:38.688Z,87.82
2023-01-10T15:53:11.267Z,87.44
2023-01-10T15:55:54.221Z,87.72
2023-01-10T15:58:36.431Z,87.81
2023-01-10T16:01:04.884Z,87.25
2023-01-10T16:03:43.881Z,88.06
2023-01-10T16:06:36.700Z,87.41
2023-01-10T16:09:17.108Z,87.90
2023-01-10T16:12:11.561Z,87.13
2023-01-10T16:14:40.320Z,87.60
2023-01-10T16:17:07.908Z,87.26
2023-01-10T16:19:35.116Z,87.24
2023-01-10T16:22:02.292Z,86.66
2023-01-10T16:24:34.035Z,87.60
2023-01-10T16:27:06.472Z,86.58
2023-01-10T16:29:34.296Z,87.01
2023-01-10T16:32:01.936Z,86.41
2023-01-10T16:34:29.775Z,86.20
2023-01-10T16:36:57.061Z,85.97
2023-01-10T16:39:24.309Z,86.18
2023-01-10T16:42:10.034Z,85.94
2023-01-10T16:44:37.054Z,86.01
2023-01-10T16:47:06.918Z,85.83
2023-01-10T16:49:34.444Z,85.99
2023-01-10T16:52:01.602Z,86.08
2023-01-10T16:54:28.661Z,85.97
2023-01-10T16:56:55.978Z,85.85
2023-01-10T16:59:23.230Z,85.27
2023-01-10T17:01:58.202Z,85.82
2023-01-10T17:04:30.675Z,85.63
2023-01-10T17:06:59.055Z,85.44
2023-01-10T17:09:30.805Z,85.05
2023-01-10T17:12:19.498Z,84.98
2023-01-10T17:14:48.186Z,84.89
2023-01-10T17:17:15.258Z,84.92
2023-01-10T17:19:43.193Z,85.37
2023-01-10T17:22:10.199Z,85.47
2023-01-10T17:24:37.199Z,84.99
2023-01-10T17:27:04.500Z,85.29
2023-01-10T17:29:33.728Z,84.30
2023-01-10T17:32:01.096Z,84.42
2023-01-10T17:34:30.997Z,84.97
2023-01-10T17:36:58.023Z,84.70
2023-01-10T17:39:25.179Z,84.75
2023-01-10T17:41:52.272Z,84.73
2023-01-10T17:44:19.329Z,84.09
2023-01-10T17:46:48.863Z,84.65
2023-01-10T17:49:16.010Z,84.87
2023-01-10T17:51:43.208Z,85.00
2023-01-10T17:54:10.248Z,84.55
2023-01-10T17:56:37.316Z,84.95
2023-01-10T17:59:04.328Z,85.51
2023-01-10T18:01:31.653Z,85.02
2023-01-10T18:03:58.750Z,84.61
2023-01-10T18:06:25.851Z,84.92
2023-01-10T18:08:54.070Z,85.99
2023-01-10T18:11:24.992Z,85.00
2023-01-10T18:13:52.205Z,85.32
2023-01-10T18:16:19.307Z,85.10
2023-01-10T18:18:46.374Z,85.00
2023-01-10T18:21:18.124Z,85.32
2023-01-10T18:23:48.169Z,84.62
2023-01-10T18:26:15.312Z,84.96
2023-01-10T18:28:44.331Z,85.17
2023-01-10T18:31:18.566Z,84.98
2023-01-10T18:33:47.867Z,85.25
2023-01-10T18:36:22.090Z,85.08
2023-01-10T18:38:52.388Z,85.14
2023-01-10T18:41:22.809Z,85.89
2023-01-10T18:43:52.338Z,85.79
2023-01-10T18:46:22.643Z,86.07
2023-01-10T18:48:52.798Z,85.69
2023-01-10T18:51:20.181Z,86.13
2023-01-10T18:53:48.892Z,86.06
2023-01-10T18:56:17.149Z,85.85
2023-01-10T18:58:44.912Z,85.60
2023-01-10T19:01:20.044Z,86.47
2023-01-10T19:03:47.957Z,86.57
2023-01-10T19:06:18.954Z,85.89
2023-01-10T19:08:47.221Z,86.92
2023-01-10T19:11:16.584Z,86.20
2023-01-10T19:13:47.280Z,86.62
2023-01-10T19:16:26.092Z,86.87
2023-01-10T19:19:00.954Z,86.80
2023-01-10T19:21:31.212Z,86.43
2023-01-10T19:24:37.819Z,86.71
2023-01-10T19:27:11.593Z,86.61
2023-01-10T19:29:41.789Z,87.35
2023-01-10T19:32:09.150Z,86.66
2023-01-10T19:34:37.450Z,86.95
2023-01-10T19:37:05.634Z,86.79
2023-01-10T19:39:33.810Z,87.04
2023-01-10T19:42:01.005Z,87.23
2023-01-10T19:44:28.534Z,86.96
2023-01-10T19:46:55.758Z,86.99
2023-01-10T19:49:24.091Z,87.15
2023-01-10T19:51:53.678Z,86.79
2023-01-10T19:54:27.059Z,86.87
2023-01-10T19:56:57.178Z,87.16
2023-01-10T19:59:25.019Z,87.29
2023-01-10T20:01:52.275Z,86.96
2023-01-10T20:04:21.921Z,86.66
2023-01-10T20:06:49.353Z,86.52
2023-01-10T20:09:16.607Z,86.71
2023-01-10T20:11:46.081Z,86.70
2023-01-10T20:14:21.448Z,86.61
2023-01-10T20:16:50.997Z,87.02
2023-01-10T20:19:18.339Z,87.10
2023-01-10T20:21:45.578Z,87.06
2023-01-10T20:24:19.473Z,87.28
2023-01-10T20:26:49.659Z,87.36
2023-01-10T20:29:18.559Z,87.31
2023-01-10T20:31:48.083Z,87.20
2023-01-10T20:34:15.261Z,86.73
2023-01-10T20:36:42.365Z,87.10
2023-01-10T20:39:09.421Z,87.75
2023-01-10T20:41:37.208Z,87.60
2023-01-10T20:44:04.360Z,88.08
2023-01-10T20:46:33.850Z,88.19
2023-01-10T20:49:02.788Z,88.34
2023-01-10T20:51:35.305Z,88.43
2023-01-10T20:54:04.867Z,89.20
2023-01-10T20:56:33.118Z,89.05
2023-01-10T20:59:00.227Z,89.16
2023-01-10T21:01:34.672Z,89.24
2023-01-10T21:04:05.742Z,89.07
2023-01-10T21:06:33.732Z,88.91
2023-01-10T21:09:00.938Z,88.78
2023-01-10T21:11:28.194Z,89.09
2023-01-10T21:13:55.410Z,88.87
2023-01-10T21:16:22.894Z,89.67
2023-01-10T21:18:50.715Z,89.18
2023-01-10T21:21:22.469Z,89.80
2023-01-10T21:24:01.009Z,89.52
2023-01-10T21:26:28.035Z,89.72
2023-01-10T21:28:55.025Z,90.09
2023-01-10T21:31:22.481Z,89.51
2023-01-10T21:33:50.152Z,89.46
2023-01-10T21:36:17.896Z,89.07
2023-01-10T21:38:45.210Z,89.32
2023-01-10T21:41:40.075Z,89.71
2023-01-10T21:44:08.425Z,89.40
2023-01-10T21:46:36.045Z,89.20
2023-01-10T21:49:05.099Z,89.82
2023-01-10T21:51:32.526Z,89.71
2023-01-10T21:53:59.819Z,89.28
2023-01-10T21:56:26.921Z,88.92
2023-01-10T21:58:53.956Z,89.25
2023-01-10T22:01:21.047Z,88.68
2023-01-10T22:03:49.447Z,89.22
2023-01-10T22:06:16.584Z,89.13
2023-01-10T22:08:43.779Z,88.95
2023-01-10T22:11:11.456Z,89.06
2023-01-10T22:13:39.063Z,88.85
2023-01-10T22:16:09.452Z,88.81
2023-01-10T22:18:36.658Z,89.14
2023-01-10T22:21:03.745Z,89.20
2023-01-10T22:23:31.240Z,89.21
2023-01-10T22:26:14.043Z,88.58
2023-01-10T22:28:42.168Z,88.38
2023-01-10T22:31:09.473Z,88.51
2023-01-10T22:33:38.418Z,88.52
2023-01-10T22:36:15.399Z,88.16
2023-01-10T22:38:43.589Z,88.05
2023-01-10T22:41:18.223Z,87.94
2023-01-10T22:43:46.395Z,87.61
2023-01-10T22:46:15.712Z,87.31
2023-01-10T22:48:43.440Z,87.75
2023-01-10T22:51:10.917Z,87.70
2023-01-10T22:53:38.002Z,87.30
2023-01-10T22:56:10.422Z,87.36
2023-01-10T22:58:38.309Z,87.22
2023-01-10T23:01:07.783Z,86.51
2023-01-10T23:03:34.970Z,86.74
2023-01-10T23:06:02.112Z,87.44
2023-01-10T23:08:29.166Z,86.63
2023-01-10T23:10:56.171Z,86.76
2023-01-10T23:13:24.906Z,86.48
2023-01-10T23:16:01.147Z,86.61
2023-01-10T23:18:28.847Z,86.75
2023-01-10T23:20:56.662Z,86.65
2023-01-10T23:23:25.920Z,86.28
2023-01-10T23:26:02.936Z,86.12
2023-01-10T23:28:38.792Z,86.23
2023-01-10T23:31:07.559Z,85.58
2023-01-10T23:33:35.046Z,86.56
2023-01-10T23:36:02.819Z,85.62
2023-01-10T23:38:30.078Z,85.74
2023-01-10T23:40:57.948Z,85.69
2023-01-10T23:43:27.642Z,86.17
2023-01-10T23:45:54.761Z,85.87
2023-01-10T23:48:22.218Z,85.38
2023-01-10T23:50:52.743Z,85.53
2023-01-10T23:53:20.301Z,85.86
2023-01-10T23:55:47.537Z,85.22
2023-01-10T23:58:16.267Z,85.34
